createdAt,value
2019-05-09T00:02:25.710Z,2.63
2019-05-09T00:04:57.580Z,2.73
2019-05-09T00:07:27.995Z,2.40
2019-05-09T00:09:59.789Z,2.60
2019-05-09T00:12:33.563Z,2.60
2019-05-09T00:15:06.446Z,2.57
2019-05-09T00:17:36.895Z,2.20
2019-05-09T00:20:14.037Z,2.40
2019-05-09T00:22:44.795Z,2.20
2019-05-09T00:25:19.970Z,2.30
2019-05-09T00:27:50.429Z,1.90
2019-05-09T00:30:44.728Z,2.10
2019-05-09T00:33:16.890Z,2.03
2019-05-09T00:35:48.526Z,2.20
2019-05-09T00:38:20.763Z,2.40
2019-05-09T00:40:58.674Z,1.83
2019-05-09T00:43:27.950Z,1.80
2019-05-09T00:46:23.709Z,2.10
2019-05-09T00:48:58.713Z,1.80
2019-05-09T00:51:29.190Z,1.50
2019-05-09T00:54:09.670Z,1.70
2019-05-09T00:56:40.094Z,1.50
2019-05-09T00:59:13.547Z,1.63
2019-05-09T01:01:47.649Z,1.53
2019-05-09T01:04:18.131Z,1.60
2019-05-09T01:06:49.712Z,1.87
2019-05-09T01:09:24.303Z,1.60
2019-05-09T01:11:55.085Z,1.67
2019-05-09T01:14:26.202Z,1.60
2019-05-09T01:16:59.104Z,1.50
2019-05-09T01:19:29.513Z,1.63
2019-05-09T01:22:00.279Z,1.50
2019-05-09T01:24:33.769Z,1.60
2019-05-09T01:27:09.680Z,1.40
2019-05-09T01:29:40.107Z,1.60
2019-05-09T01:32:18.738Z,1.50
2019-05-09T01:34:52.988Z,1.60
2019-05-09T01:37:25.694Z,1.50
2019-05-09T01:39:57.766Z,1.50
2019-05-09T01:42:28.202Z,1.70
2019-05-09T01:44:58.907Z,1.60
2019-05-09T01:47:29.313Z,1.30
2019-05-09T01:49:59.757Z,1.30
2019-05-09T01:52:30.221Z,1.30
2019-05-09T01:55:05.888Z,1.27
2019-05-09T01:57:36.317Z,1.63
2019-05-09T02:00:07.094Z,1.40
2019-05-09T02:02:43.528Z,1.60
2019-05-09T02:05:13.974Z,1.33
2019-05-09T02:07:44.433Z,1.60
2019-05-09T02:10:14.824Z,1.80
2019-05-09T02:12:45.289Z,1.40
2019-05-09T02:15:26.917Z,1.60
2019-05-09T02:18:16.256Z,1.50
2019-05-09T02:20:46.730Z,1.43
2019-05-09T02:23:23.387Z,1.70
2019-05-09T02:25:54.126Z,1.80
2019-05-09T02:28:34.120Z,1.50
2019-05-09T02:31:05.544Z,1.70
2019-05-09T02:33:36.126Z,1.37
2019-05-09T02:36:09.464Z,1.70
2019-05-09T02:38:39.689Z,1.90
2019-05-09T02:41:14.102Z,2.00
2019-05-09T02:43:49.269Z,1.60
2019-05-09T02:46:41.015Z,1.97
2019-05-09T02:49:11.434Z,1.80
2019-05-09T02:51:42.059Z,1.70
2019-05-09T02:54:12.435Z,1.50
2019-05-09T02:56:49.861Z,1.87
2019-05-09T02:59:45.434Z,1.73
2019-05-09T03:02:28.954Z,1.70
2019-05-09T03:04:58.497Z,1.80
2019-05-09T03:07:48.886Z,1.70
2019-05-09T03:10:20.819Z,1.80
2019-05-09T03:12:51.657Z,1.80
2019-05-09T03:15:22.046Z,1.60
2019-05-09T03:17:52.643Z,1.60
2019-05-09T03:20:30.770Z,1.50
2019-05-09T03:23:01.321Z,2.10
2019-05-09T03:25:32.290Z,2.00
2019-05-09T03:28:12.477Z,1.93
2019-05-09T03:30:44.537Z,1.80
2019-05-09T03:33:15.078Z,1.90
2019-05-09T03:35:48.169Z,1.80
2019-05-09T03:38:18.823Z,1.67
2019-05-09T03:40:49.274Z,1.80
2019-05-09T03:43:22.265Z,1.80
2019-05-09T03:48:39.232Z,1.90
2019-05-09T03:51:15.360Z,1.73
2019-05-09T03:53:48.235Z,1.87
2019-05-09T03:56:29.723Z,1.70
2019-05-09T03:59:00.161Z,1.70
2019-05-09T04:01:30.856Z,1.50
2019-05-09T04:04:01.296Z,1.63
2019-05-09T04:06:32.034Z,1.60
2019-05-09T04:09:08.661Z,1.70
2019-05-09T04:11:39.137Z,1.50
2019-05-09T04:14:13.867Z,1.67
2019-05-09T04:16:44.349Z,1.80
2019-05-09T04:19:17.353Z,1.73
2019-05-09T04:22:08.379Z,1.67
2019-05-09T04:24:39.062Z,1.57
2019-05-09T04:27:17.793Z,1.33
2019-05-09T04:29:48.526Z,1.50
2019-05-09T04:32:27.419Z,1.70
2019-05-09T04:34:58.092Z,1.40
2019-05-09T04:37:31.020Z,1.50
2019-05-09T04:40:03.455Z,1.77
2019-05-09T04:42:35.031Z,1.37
2019-05-09T04:45:17.866Z,1.40
2019-05-09T04:47:48.579Z,1.57
2019-05-09T04:50:24.848Z,1.70
2019-05-09T04:52:53.180Z,1.50
2019-05-09T04:55:27.342Z,1.50
2019-05-09T04:58:00.073Z,1.70
2019-05-09T05:00:49.037Z,1.80
2019-05-09T05:03:21.015Z,1.67
2019-05-09T05:05:51.473Z,1.53
2019-05-09T05:08:37.560Z,1.50
2019-05-09T05:11:12.068Z,1.33
2019-05-09T05:13:44.099Z,2.37
2019-05-09T05:16:18.514Z,6.00
2019-05-09T05:18:49.112Z,2.03
2019-05-09T05:21:21.994Z,1.80
2019-05-09T05:24:18.496Z,1.67
2019-05-09T05:26:52.982Z,1.60
2019-05-09T05:29:28.203Z,1.50
2019-05-09T05:32:00.661Z,1.43
2019-05-09T05:34:42.467Z,1.60
2019-05-09T05:37:12.894Z,1.30
2019-05-09T05:39:44.132Z,1.30
2019-05-09T05:42:14.802Z,1.43
2019-05-09T05:44:47.538Z,1.97
2019-05-09T05:47:33.926Z,1.60
2019-05-09T05:50:04.401Z,1.30
2019-05-09T05:52:38.273Z,2.00
2019-05-09T05:55:08.846Z,1.20
2019-05-09T05:57:43.947Z,1.60
2019-05-09T06:00:17.919Z,1.50
2019-05-09T06:02:48.049Z,1.37
2019-05-09T06:05:19.097Z,1.40
2019-05-09T06:07:49.533Z,1.60
2019-05-09T06:10:20.182Z,1.20
2019-05-09T06:12:50.933Z,1.30
2019-05-09T06:15:28.952Z,2.27
2019-05-09T06:17:59.463Z,2.43
2019-05-09T06:20:38.533Z,1.20
2019-05-09T06:23:14.973Z,1.40
2019-05-09T06:25:48.261Z,1.87
2019-05-09T06:28:18.201Z,1.40
2019-05-09T06:30:49.588Z,1.60
2019-05-09T06:33:20.020Z,1.77
2019-05-09T06:35:50.550Z,1.50
2019-05-09T06:38:24.989Z,1.57
2019-05-09T06:40:57.979Z,1.50
2019-05-09T06:43:30.641Z,1.60
2019-05-09T06:46:09.625Z,1.63
2019-05-09T06:48:43.165Z,1.40
2019-05-09T06:51:13.834Z,1.60
2019-05-09T06:53:44.811Z,1.60
2019-05-09T06:56:19.340Z,1.80
2019-05-09T06:58:49.840Z,1.47
2019-05-09T07:01:39.369Z,1.43
2019-05-09T07:04:18.646Z,1.60
2019-05-09T07:07:03.099Z,1.50
2019-05-09T07:09:43.417Z,1.57
2019-05-09T07:12:13.874Z,1.37
2019-05-09T07:14:52.314Z,1.70
2019-05-09T07:17:23.037Z,1.63
2019-05-09T07:19:53.588Z,1.57
2019-05-09T07:22:41.639Z,1.57
2019-05-09T07:25:43.273Z,1.73
2019-05-09T07:28:14.103Z,1.60
2019-05-09T07:31:04.253Z,1.60
2019-05-09T07:33:58.681Z,1.47
2019-05-09T07:36:30.114Z,1.63
2019-05-09T07:39:08.766Z,1.47
2019-05-09T07:41:42.505Z,1.60
2019-05-09T07:44:18.058Z,1.80
2019-05-09T07:46:55.103Z,1.43
2019-05-09T07:49:28.893Z,1.80
2019-05-09T07:52:06.614Z,1.53
2019-05-09T07:54:37.687Z,1.50
2019-05-09T07:57:09.859Z,1.80
2019-05-09T07:59:40.294Z,1.70
2019-05-09T08:02:14.267Z,1.67
2019-05-09T08:04:49.106Z,2.57
2019-05-09T08:07:19.401Z,1.80
2019-05-09T08:09:51.313Z,1.50
2019-05-09T08:12:28.435Z,1.60
2019-05-09T08:15:08.542Z,1.67
2019-05-09T08:17:31.166Z,1.77
2019-05-09T08:20:03.144Z,1.60
2019-05-09T08:22:40.942Z,2.13
2019-05-09T08:25:10.110Z,1.67
2019-05-09T08:27:40.542Z,1.40
2019-05-09T08:30:14.210Z,1.27
2019-05-09T08:32:48.258Z,1.73
2019-05-09T08:35:35.224Z,1.33
2019-05-09T08:38:08.302Z,1.20
2019-05-09T08:40:38.607Z,1.50
2019-05-09T08:43:11.949Z,1.50
2019-05-09T08:45:44.172Z,1.50
2019-05-09T08:48:14.922Z,1.47
2019-05-09T08:50:49.465Z,1.50
2019-05-09T08:53:27.458Z,1.70
2019-05-09T08:55:58.094Z,1.13
2019-05-09T08:58:29.415Z,1.50
2019-05-09T09:01:03.830Z,1.10
2019-05-09T09:03:37.710Z,1.20
2019-05-09T09:06:11.163Z,1.47
2019-05-09T09:08:48.102Z,1.43
2019-05-09T09:11:21.092Z,1.10
2019-05-09T09:13:52.457Z,1.20
2019-05-09T09:16:22.990Z,1.10
2019-05-09T09:18:53.511Z,0.93
2019-05-09T09:21:35.675Z,1.10
2019-05-09T09:24:09.279Z,1.07
2019-05-09T09:26:40.116Z,1.20
2019-05-09T09:29:11.035Z,0.93
2019-05-09T09:31:41.542Z,1.20
2019-05-09T09:34:12.460Z,1.30
2019-05-09T09:36:43.391Z,0.80
2019-05-09T09:39:14.384Z,1.50
2019-05-09T09:41:44.926Z,1.17
2019-05-09T09:44:22.515Z,0.90
2019-05-09T09:46:53.682Z,1.53
2019-05-09T09:49:31.889Z,1.10
2019-05-09T09:52:02.832Z,1.10
2019-05-09T09:54:35.108Z,1.30
2019-05-09T09:57:09.655Z,1.17
2019-05-09T09:59:48.349Z,1.17
2019-05-09T10:02:22.569Z,1.47
2019-05-09T10:04:53.332Z,1.07
2019-05-09T10:07:24.005Z,1.27
2019-05-09T10:09:55.018Z,1.30
2019-05-09T10:12:29.223Z,1.30
2019-05-09T10:15:08.333Z,1.27
2019-05-09T10:21:06.061Z,1.50
2019-05-09T10:23:37.875Z,1.33
2019-05-09T10:26:08.759Z,1.23
2019-05-09T10:28:45.232Z,1.40
2019-05-09T10:31:16.977Z,1.07
2019-05-09T10:33:48.361Z,1.73
2019-05-09T10:36:19.240Z,1.27
2019-05-09T10:38:49.745Z,1.30
2019-05-09T10:41:20.257Z,1.20
2019-05-09T10:44:02.083Z,1.50
2019-05-09T10:46:53.616Z,1.00
2019-05-09T10:49:21.092Z,1.53
2019-05-09T10:51:58.081Z,1.27
2019-05-09T10:54:50.585Z,1.70
2019-05-09T10:57:32.334Z,1.57
2019-05-09T11:00:03.486Z,1.30
2019-05-09T11:02:37.641Z,1.57
2019-05-09T11:05:08.542Z,1.50
2019-05-09T11:07:39.145Z,1.10
2019-05-09T11:10:25.922Z,1.80
2019-05-09T11:12:51.229Z,1.70
2019-05-09T11:15:23.781Z,1.10
2019-05-09T11:17:57.694Z,2.07
2019-05-09T11:20:28.573Z,1.77
2019-05-09T11:23:08.391Z,1.40
2019-05-09T11:25:40.242Z,1.20
2019-05-09T11:28:15.055Z,1.23
2019-05-09T11:30:47.528Z,1.20
2019-05-09T11:33:21.074Z,1.17
2019-05-09T11:35:53.322Z,1.10
2019-05-09T11:38:32.693Z,1.40
2019-05-09T11:40:57.955Z,1.40
2019-05-09T11:43:30.102Z,1.40
2019-05-09T11:46:01.303Z,1.47
2019-05-09T11:48:32.752Z,1.03
2019-05-09T11:51:14.340Z,1.00
2019-05-09T11:53:48.648Z,1.10
2019-05-09T11:56:20.660Z,1.20
2019-05-09T11:58:58.165Z,1.00
2019-05-09T12:01:29.241Z,1.50
2019-05-09T12:04:00.107Z,1.10
2019-05-09T12:06:30.682Z,1.00
2019-05-09T12:09:05.232Z,1.20
2019-05-09T12:11:43.459Z,1.27
2019-05-09T12:14:11.276Z,1.20
2019-05-09T12:16:43.462Z,1.00
2019-05-09T12:19:14.340Z,1.40
2019-05-09T12:21:47.963Z,1.03
2019-05-09T12:24:21.316Z,0.73
2019-05-09T12:27:02.898Z,1.00
2019-05-09T12:29:34.413Z,0.90
2019-05-09T12:32:05.657Z,0.80
2019-05-09T12:34:36.465Z,0.80
2019-05-09T12:37:09.494Z,0.93
2019-05-09T12:39:41.097Z,0.53
2019-05-09T12:42:28.812Z,1.37
2019-05-09T12:45:01.041Z,1.20
2019-05-09T12:47:34.121Z,0.80
2019-05-09T12:50:04.801Z,0.80
2019-05-09T12:52:59.408Z,0.67
2019-05-09T12:55:32.743Z,1.03
2019-05-09T12:58:03.768Z,0.80
2019-05-09T13:00:38.438Z,1.00
2019-05-09T13:03:19.540Z,0.80
2019-05-09T13:05:52.251Z,0.70
2019-05-09T13:08:24.154Z,1.10
2019-05-09T13:10:58.332Z,1.10
2019-05-09T13:13:32.593Z,1.10
2019-05-09T13:16:13.805Z,1.00
2019-05-09T13:19:02.556Z,0.90
2019-05-09T13:21:38.365Z,1.00
2019-05-09T13:27:38.742Z,0.97
2019-05-09T13:30:13.815Z,1.00
2019-05-09T13:35:39.548Z,1.30
2019-05-09T13:38:11.290Z,1.03
2019-05-09T13:40:52.981Z,0.97
2019-05-09T13:43:28.099Z,0.97
2019-05-09T13:46:00.353Z,0.47
2019-05-09T13:48:57.135Z,0.90
2019-05-09T13:51:07.743Z,0.83
2019-05-09T13:53:42.928Z,1.10
2019-05-09T13:56:17.858Z,1.10
2019-05-09T13:58:59.922Z,0.97
2019-05-09T14:01:31.116Z,1.07
2019-05-09T14:04:02.147Z,1.10
2019-05-09T14:06:39.078Z,1.10
2019-05-09T14:09:16.249Z,1.37
2019-05-09T14:11:49.534Z,1.03
2019-05-09T14:14:20.239Z,1.07
2019-05-09T14:20:13.796Z,0.90
2019-05-09T14:22:52.416Z,1.00
2019-05-09T14:25:23.429Z,0.97
2019-05-09T14:27:53.928Z,1.10
2019-05-09T14:30:27.752Z,1.10
2019-05-09T14:33:03.207Z,1.00
2019-05-09T14:35:41.983Z,0.70
2019-05-09T14:38:15.212Z,0.97
2019-05-09T14:40:49.168Z,1.00
2019-05-09T14:43:21.173Z,1.00
2019-05-09T14:45:52.217Z,1.00
2019-05-09T14:48:28.750Z,0.70
2019-05-09T14:51:03.366Z,1.40
2019-05-09T14:53:34.112Z,0.80
2019-05-09T14:56:05.070Z,1.30
2019-05-09T14:58:39.048Z,0.80
2019-05-09T15:01:19.354Z,1.20
2019-05-09T15:03:51.233Z,1.10
2019-05-09T15:06:38.099Z,1.30
2019-05-09T15:09:14.950Z,1.10
2019-05-09T15:11:44.415Z,1.00
2019-05-09T15:14:20.789Z,1.23
2019-05-09T15:16:52.754Z,1.07
2019-05-09T15:19:28.586Z,1.30
2019-05-09T15:22:01.010Z,1.13
2019-05-09T15:24:34.494Z,1.10
2019-05-09T15:27:05.280Z,1.40
2019-05-09T15:30:19.524Z,1.47
2019-05-09T15:32:54.305Z,1.07
2019-05-09T15:35:25.100Z,1.40
2019-05-09T15:37:55.707Z,1.23
2019-05-09T15:40:29.921Z,1.00
2019-05-09T15:43:04.005Z,1.20
2019-05-09T15:46:04.710Z,1.23
2019-05-09T15:48:38.365Z,1.00
2019-05-09T15:51:09.252Z,1.23
2019-05-09T15:53:39.779Z,0.97
2019-05-09T15:56:18.969Z,1.10
2019-05-09T15:58:49.941Z,1.23
2019-05-09T16:01:22.829Z,0.90
2019-05-09T16:03:55.123Z,0.97
2019-05-09T16:06:33.045Z,1.47
2019-05-09T16:09:01.350Z,1.60
2019-05-09T16:11:37.615Z,1.00
2019-05-09T16:14:07.744Z,0.90
2019-05-09T16:16:38.650Z,2.27
2019-05-09T16:19:09.421Z,1.07
2019-05-09T16:21:44.224Z,1.57
2019-05-09T16:24:18.838Z,1.70
2019-05-09T16:26:50.031Z,1.27
2019-05-09T16:29:21.234Z,1.20
2019-05-09T16:31:54.311Z,1.23
2019-05-09T16:35:09.976Z,0.97
2019-05-09T16:38:45.782Z,1.30
2019-05-09T16:41:13.485Z,1.30
2019-05-09T16:43:52.765Z,1.20
2019-05-09T16:46:28.427Z,1.17
2019-05-09T16:48:58.357Z,1.23
2019-05-09T16:51:34.117Z,1.40
2019-05-09T16:54:07.843Z,1.80
2019-05-09T16:56:49.544Z,1.10
2019-05-09T16:59:24.801Z,0.97
2019-05-09T17:01:57.711Z,1.50
2019-05-09T17:04:40.296Z,1.57
2019-05-09T17:07:13.365Z,1.20
2019-05-09T17:09:45.265Z,1.13
2019-05-09T17:12:20.851Z,0.90
2019-05-09T17:14:59.435Z,0.57
2019-05-09T17:17:27.965Z,1.20
2019-05-09T17:20:04.194Z,1.00
2019-05-09T17:23:07.586Z,1.30
2019-05-09T17:25:47.988Z,0.70
2019-05-09T17:28:18.315Z,1.00
2019-05-09T17:31:11.706Z,0.77
2019-05-09T17:33:42.403Z,0.83
2019-05-09T17:36:23.715Z,0.70
2019-05-09T17:39:00.236Z,0.80
2019-05-09T17:41:32.739Z,0.77
2019-05-09T17:44:03.265Z,1.97
2019-05-09T17:46:39.967Z,0.80
2019-05-09T17:49:12.334Z,1.13
2019-05-09T17:51:42.991Z,0.80
2019-05-09T17:54:23.249Z,1.07
2019-05-09T17:56:57.333Z,1.37
2019-05-09T17:59:44.993Z,1.20
2019-05-09T18:02:20.053Z,1.40
2019-05-09T18:04:52.109Z,0.80
2019-05-09T18:07:22.966Z,0.83
2019-05-09T18:10:00.178Z,1.20
2019-05-09T18:12:39.035Z,0.70
2019-05-09T18:15:13.095Z,0.93
2019-05-09T18:17:58.818Z,0.93
2019-05-09T18:20:30.572Z,0.80
2019-05-09T18:23:10.982Z,1.10
2019-05-09T18:25:45.001Z,0.70
2019-05-09T18:28:20.106Z,0.93
2019-05-09T18:31:02.677Z,0.63
2019-05-09T18:34:10.372Z,2.10
2019-05-09T18:36:41.217Z,1.10
2019-05-09T18:39:14.810Z,1.40
2019-05-09T18:41:45.307Z,0.93
2019-05-09T18:44:39.388Z,1.20
2019-05-09T18:47:14.368Z,1.43
2019-05-09T18:49:46.366Z,1.57
2019-05-09T18:52:21.829Z,0.90
2019-05-09T18:54:55.110Z,0.80
2019-05-09T18:57:34.004Z,1.03
2019-05-09T19:00:06.234Z,0.97
2019-05-09T19:02:42.191Z,1.30
2019-05-09T19:05:13.220Z,1.03
2019-05-09T19:07:46.178Z,1.30
2019-05-09T19:10:18.659Z,1.10
2019-05-09T19:12:55.064Z,1.40
2019-05-09T19:15:51.706Z,1.50
2019-05-09T19:18:41.103Z,1.23
2019-05-09T19:21:37.612Z,0.70
2019-05-09T19:24:08.264Z,1.03
2019-05-09T19:26:40.201Z,1.03
2019-05-09T19:29:12.726Z,1.60
2019-05-09T19:31:50.704Z,1.50
2019-05-09T19:34:23.009Z,1.10
2019-05-09T19:36:55.682Z,1.20
2019-05-09T19:39:33.074Z,1.10
2019-05-09T19:42:17.242Z,1.00
2019-05-09T19:44:48.391Z,1.00
2019-05-09T19:47:20.372Z,0.90
2019-05-09T19:49:54.163Z,0.90
2019-05-09T19:52:38.204Z,1.00
2019-05-09T19:55:10.264Z,1.03
2019-05-09T19:57:54.453Z,1.20
2019-05-09T20:00:27.989Z,1.10
2019-05-09T20:03:03.109Z,1.20
2019-05-09T20:05:37.342Z,1.33
2019-05-09T20:08:08.685Z,1.50
2019-05-09T20:11:22.126Z,1.30
2019-05-09T20:14:29.637Z,0.97
2019-05-09T20:17:04.200Z,1.10
2019-05-09T20:19:36.253Z,0.97
2019-05-09T20:22:07.113Z,1.03
2019-05-09T20:24:39.332Z,1.00
2019-05-09T20:27:12.951Z,1.00
2019-05-09T20:29:43.883Z,1.23
2019-05-09T20:32:17.072Z,1.10
2019-05-09T20:34:51.048Z,1.30
2019-05-09T20:37:21.759Z,1.30
2019-05-09T20:39:52.402Z,1.50
2019-05-09T20:42:33.097Z,1.03
2019-05-09T20:45:05.834Z,1.00
2019-05-09T20:47:37.772Z,1.10
2019-05-09T20:50:08.568Z,1.20
2019-05-09T20:52:43.136Z,1.40
2019-05-09T20:55:16.144Z,1.50
2019-05-09T20:57:46.838Z,1.17
2019-05-09T21:00:21.156Z,1.60
2019-05-09T21:02:51.812Z,1.23
2019-05-09T21:05:22.825Z,2.00
2019-05-09T21:07:53.517Z,1.23
2019-05-09T21:10:28.778Z,1.10
2019-05-09T21:12:59.433Z,1.50
2019-05-09T21:15:32.258Z,1.37
2019-05-09T21:18:04.733Z,1.57
2019-05-09T21:20:37.208Z,1.70
2019-05-09T21:23:23.490Z,1.40
2019-05-09T21:25:42.245Z,1.37
2019-05-09T21:28:13.134Z,1.40
2019-05-09T21:30:45.100Z,1.20
2019-05-09T21:33:16.058Z,1.30
2019-05-09T21:35:46.540Z,1.33
2019-05-09T21:38:22.916Z,2.27
2019-05-09T21:40:56.104Z,1.40
2019-05-09T21:43:27.637Z,1.30
2019-05-09T21:46:03.999Z,1.40
2019-05-09T21:48:40.194Z,1.30
2019-05-09T21:51:12.970Z,1.30
2019-05-09T21:53:45.926Z,1.67
2019-05-09T21:56:16.485Z,1.30
2019-05-09T21:58:50.125Z,1.70
2019-05-09T22:01:25.450Z,1.17
2019-05-09T22:03:57.389Z,1.20
2019-05-09T22:06:41.193Z,1.50
2019-05-09T22:09:14.793Z,1.30
2019-05-09T22:11:45.679Z,1.30
2019-05-09T22:14:19.117Z,1.30
2019-05-09T22:16:49.930Z,1.23
2019-05-09T22:19:37.231Z,1.43
2019-05-09T22:22:07.770Z,1.60
2019-05-09T22:24:38.324Z,1.70
2019-05-09T22:27:09.104Z,1.57
2019-05-09T22:29:39.586Z,1.87
2019-05-09T22:32:10.889Z,1.87
2019-05-09T22:34:42.948Z,2.00
2019-05-09T22:37:15.832Z,1.83
2019-05-09T22:39:46.348Z,1.97
2019-05-09T22:42:16.824Z,2.00
2019-05-09T22:44:57.098Z,2.20
2019-05-09T22:47:29.719Z,2.20
2019-05-09T22:50:01.985Z,2.40
2019-05-09T22:52:32.763Z,1.90
2019-05-09T22:55:03.334Z,2.03
2019-05-09T22:57:34.120Z,2.27
2019-05-09T23:00:09.198Z,2.20
2019-05-09T23:02:41.329Z,1.80
2019-05-09T23:05:11.971Z,2.07
2019-05-09T23:07:44.106Z,2.10
2019-05-09T23:10:14.997Z,2.00
2019-05-09T23:12:45.791Z,1.90
2019-05-09T23:15:18.498Z,1.97
2019-05-09T23:17:49.236Z,1.90
2019-05-09T23:20:38.660Z,1.97
2019-05-09T23:23:43.323Z,1.90
2019-05-09T23:26:17.532Z,1.50
2019-05-09T23:28:48.486Z,1.33
2019-05-09T23:31:24.994Z,1.70
2019-05-09T23:33:55.514Z,1.50
2019-05-09T23:36:27.232Z,1.47
2019-05-09T23:39:22.781Z,1.40
2019-05-09T23:41:53.290Z,1.40
2019-05-09T23:44:32.468Z,1.50
2019-05-09T23:47:02.962Z,1.40
2019-05-09T23:49:33.501Z,1.30
2019-05-09T23:52:04.418Z,1.60
2019-05-09T23:54:54.306Z,1.50
2019-05-09T23:57:42.542Z,1.63
